Time;durP1;ratioP1;P1;durP2;ratioP2;P2;SDS_P1;SDS_P2;PMS_P1;PMS_P2;Temp;Humidity;BMP_temperature;BMP_pressure;BME280_temperature;BME280_humidity;BME280_pressure;Samples;Min_cycle;Max_cycle;Signal;HPM_P1;HPM_P2
2022/06/15 00:00:41;;;;;;;2.85;2.20;;;;;;;18.58;45.25;95266.34;5074174;28;20197;-75
2022/06/15 00:03:09;;;;;;;2.47;2.28;;;;;;;18.58;45.40;95261.53;5073860;28;20614;-75
2022/06/15 00:05:37;;;;;;;2.40;2.20;;;;;;;18.56;45.35;95261.16;5074384;28;20197;-74
2022/06/15 00:08:05;;;;;;;2.70;2.42;;;;;;;18.53;45.20;95256.38;5075746;28;20196;-74
2022/06/15 00:10:31;;;;;;;2.60;2.40;;;;;;;18.55;45.51;95253.16;5079098;28;20192;-74
2022/06/15 00:12:58;;;;;;;2.53;2.33;;;;;;;18.53;45.23;95248.78;5078945;28;20196;-74
2022/06/15 00:15:25;;;;;;;3.80;2.50;;;;;;;18.51;45.02;95253.94;5060819;28;20216;-73
2022/06/15 00:17:52;;;;;;;3.13;2.30;;;;;;;18.49;45.13;95247.19;5078948;28;20196;-76
2022/06/15 00:20:19;;;;;;;2.55;2.35;;;;;;;18.48;45.56;95243.59;5078909;28;20196;-75
2022/06/15 00:22:47;;;;;;;4.80;2.20;;;;;;;18.48;44.93;95242.78;5078743;28;20181;-75
2022/06/15 00:25:14;;;;;;;2.40;2.30;;;;;;;18.45;44.83;95238.81;5077709;28;20229;-75
2022/06/15 00:27:41;;;;;;;2.28;2.05;;;;;;;18.45;44.69;95233.22;5077680;28;20199;-74
2022/06/15 00:30:09;;;;;;;2.38;2.17;;;;;;;18.45;44.77;95235.22;5077540;28;20200;-74
2022/06/15 00:32:36;;;;;;;2.38;2.17;;;;;;;18.43;44.77;95238.41;5078328;28;20200;-74
2022/06/15 00:35:03;;;;;;;4.05;2.40;;;;;;;18.42;44.54;95239.63;5078892;28;20216;-75
2022/06/15 00:37:30;;;;;;;2.97;2.20;;;;;;;18.41;44.80;95240.81;5078718;28;20189;-76
2022/06/15 00:39:58;;;;;;;2.40;2.20;;;;;;;18.43;44.76;95234.81;5078484;28;20197;-75
2022/06/15 00:42:30;;;;;;;2.78;2.10;;;;;;;18.41;44.72;95238.03;5078124;28;20201;-77
2022/06/15 00:44:57;;;;;;;2.47;2.10;;;;;;;18.37;44.51;95236.41;5061397;28;20204;-75
2022/06/15 00:47:26;;;;;;;2.42;2.22;;;;;;;18.35;44.76;95234.03;5077878;28;20193;-75
2022/06/15 00:49:56;;;;;;;2.35;2.15;;;;;;;18.34;44.60;95240.00;5078192;28;20647;-76
2022/06/15 00:52:32;;;;;;;2.60;2.40;;;;;;;18.33;44.50;95238.41;5078662;28;20189;-75
2022/06/15 00:55:01;;;;;;;2.03;1.92;;;;;;;18.31;44.54;95238.03;5078421;28;20185;-75
2022/06/15 00:57:28;;;;;;;2.35;2.17;;;;;;;18.28;44.30;95237.63;5077639;28;20193;-75
2022/06/15 00:59:58;;;;;;;2.28;2.17;;;;;;;18.29;44.42;95241.19;5077602;28;20502;-76
2022/06/15 01:02:25;;;;;;;3.72;2.40;;;;;;;18.28;44.20;95240.41;5077146;28;20193;-75
2022/06/15 01:04:56;;;;;;;2.42;2.22;;;;;;;18.27;44.28;95250.00;5078185;28;20181;-74
2022/06/15 01:07:37;;;;;;;3.10;2.33;;;;;;;18.27;44.46;95246.41;5077585;28;20216;-76
2022/06/15 01:10:12;;;;;;;2.50;2.30;;;;;;;18.27;44.40;95243.59;5077958;28;20250;-75
2022/06/15 01:12:46;;;;;;;3.25;2.58;;;;;;;18.25;44.12;95252.38;5077954;28;20218;-75
2022/06/15 01:15:26;;;;;;;2.42;2.20;;;;;;;18.24;45.35;95253.56;5076813;28;20216;-75
2022/06/15 01:18:04;;;;;;;5.35;2.20;;;;;;;18.20;44.72;95255.56;5078222;28;20185;-76
2022/06/15 01:20:45;;;;;;;2.78;2.05;;;;;;;18.19;44.70;95248.41;5076564;28;20181;-76
2022/06/15 01:23:48;;;;;;;4.63;2.30;;;;;;;18.19;43.85;95245.59;5077622;28;20197;-74
2022/06/15 01:26:41;;;;;;;2.35;2.00;;;;;;;18.19;43.98;95253.16;5076423;28;20197;-76
2022/06/15 01:29:17;;;;;;;3.03;2.35;;;;;;;18.18;43.88;95257.94;5076589;28;20201;-77
2022/06/15 01:31:48;;;;;;;3.15;2.33;;;;;;;18.19;44.09;95250.38;5077545;28;20193;-75
2022/06/15 01:34:26;;;;;;;2.28;2.08;;;;;;;18.18;44.32;95254.34;5076982;28;20272;-77
2022/06/15 01:36:59;;;;;;;2.30;2.08;;;;;;;18.16;44.00;95246.41;5077683;28;20287;-75
2022/06/15 01:39:31;;;;;;;3.22;2.13;;;;;;;18.15;44.23;95258.72;5077007;28;20616;-75
2022/06/15 01:42:01;;;;;;;2.40;2.20;;;;;;;18.13;44.78;95257.56;5077230;28;20200;-75
2022/06/15 01:44:31;;;;;;;2.80;2.30;;;;;;;18.10;45.17;95261.13;5076651;28;20204;-75
2022/06/15 01:47:02;;;;;;;2.28;2.17;;;;;;;18.04;46.16;95274.66;5076238;28;20193;-76
2022/06/15 01:49:34;;;;;;;4.03;2.58;;;;;;;17.92;46.78;95267.47;5076930;28;20606;-75
2022/06/15 01:52:02;;;;;;;2.53;2.33;;;;;;;17.81;47.39;95272.25;5076145;28;20212;-75
2022/06/15 01:54:32;;;;;;;2.85;2.60;;;;;;;17.70;48.52;95266.59;5077201;28;20193;-75
2022/06/15 01:56:59;;;;;;;2.35;2.15;;;;;;;17.59;48.76;95270.56;5075796;28;20197;-75
2022/06/15 01:59:31;;;;;;;2.63;2.42;;;;;;;17.50;49.53;95265.31;5075783;28;20205;-75
2022/06/15 02:02:07;;;;;;;4.82;2.58;;;;;;;17.41;51.16;95262.13;5076306;28;20205;-76
2022/06/15 02:04:38;;;;;;;3.55;2.30;;;;;;;17.33;51.05;95264.09;5076813;28;20203;-75
2022/06/15 02:07:23;;;;;;;2.50;2.30;;;;;;;17.28;51.31;95265.25;5075877;28;20231;-75
2022/06/15 02:09:54;;;;;;;2.70;2.50;;;;;;;17.21;50.88;95259.66;5075557;28;20197;-74
2022/06/15 02:12:24;;;;;;;3.97;2.35;;;;;;;17.17;51.56;95269.97;5076313;28;20192;-74
2022/06/15 02:14:53;;;;;;;3.13;2.83;;;;;;;17.13;52.19;95260.78;5076404;28;20200;-73
2022/06/15 02:17:25;;;;;;;2.60;2.40;;;;;;;17.12;52.25;95269.56;5076478;28;20205;-73
2022/06/15 02:19:57;;;;;;;4.95;3.03;;;;;;;17.09;53.44;95265.56;5059551;28;20197;-76
2022/06/15 02:22:27;;;;;;;6.50;3.03;;;;;;;17.04;54.02;95269.50;5076406;28;20189;-75
2022/06/15 02:24:56;;;;;;;4.35;2.80;;;;;;;16.95;54.16;95274.63;5075546;28;20240;-75
2022/06/15 02:27:26;;;;;;;4.55;3.00;;;;;;;16.88;54.33;95268.22;5075405;28;20193;-76
2022/06/15 02:29:56;;;;;;;4.15;2.72;;;;;;;16.82;55.24;95267.78;5075200;28;20234;-76
2022/06/15 02:32:25;;;;;;;3.28;2.63;;;;;;;16.72;55.48;95265.72;5076124;28;20189;-75
2022/06/15 02:34:52;;;;;;;3.40;3.10;;;;;;;16.69;54.94;95264.50;5076078;28;20272;-75
2022/06/15 02:37:19;;;;;;;3.28;3.05;;;;;;;16.66;55.58;95265.25;5075108;28;20220;-74
2022/06/15 02:39:47;;;;;;;3.33;2.80;;;;;;;16.68;53.01;95254.53;5076290;28;20185;-74
2022/06/15 02:42:27;;;;;;;3.53;2.83;;;;;;;16.68;52.79;95262.09;5075043;28;20192;-74
2022/06/15 02:44:57;;;;;;;3.10;2.80;;;;;;;16.68;53.59;95256.53;5075405;28;20196;-74
2022/06/15 02:47:28;;;;;;;3.95;2.80;;;;;;;16.68;54.22;95257.31;5075104;28;20211;-75
2022/06/15 02:49:54;;;;;;;4.80;3.53;;;;;;;16.68;54.80;95259.31;5075249;28;20208;-74
2022/06/15 02:52:23;;;;;;;4.93;3.00;;;;;;;16.64;55.23;95262.06;5075860;28;20519;-74
2022/06/15 02:54:53;;;;;;;4.22;3.13;;;;;;;16.59;55.19;95262.41;5074951;28;20247;-74
2022/06/15 02:57:21;;;;;;;2.50;2.30;;;;;;;16.70;51.46;95262.50;5076175;28;20579;-75
2022/06/15 02:59:49;;;;;;;5.15;2.80;;;;;;;16.77;53.79;95260.59;5075482;28;20200;-75
2022/06/15 03:02:16;;;;;;;6.38;3.00;;;;;;;16.79;53.78;95265.78;5075867;28;20224;-75
2022/06/15 03:04:45;;;;;;;2.92;2.25;;;;;;;16.85;49.70;95264.25;5075537;28;20193;-75
2022/06/15 03:07:13;;;;;;;3.13;2.85;;;;;;;16.94;48.75;95263.88;5074682;28;20197;-74
2022/06/15 03:09:40;;;;;;;3.45;2.63;;;;;;;17.06;47.82;95260.75;5075346;28;20655;-75
2022/06/15 03:12:10;;;;;;;3.33;2.50;;;;;;;17.12;47.27;95258.41;5076270;28;20196;-74
2022/06/15 03:14:37;;;;;;;4.47;2.75;;;;;;;17.17;46.26;95264.38;5075281;28;20189;-75
2022/06/15 03:17:04;;;;;;;2.85;2.53;;;;;;;17.22;46.99;95258.47;5074416;28;20664;-74
2022/06/15 03:19:31;;;;;;;3.30;2.38;;;;;;;17.24;46.30;95261.63;5074616;28;20201;-74
2022/06/15 03:21:59;;;;;;;3.33;2.75;;;;;;;17.27;46.39;95260.06;5075579;28;20189;-75
2022/06/15 03:24:26;;;;;;;2.67;2.47;;;;;;;17.29;46.45;95264.06;5074470;28;20276;-74
2022/06/15 03:26:53;;;;;;;2.58;2.38;;;;;;;17.31;46.08;95264.47;5074876;28;20205;-75
2022/06/15 03:29:20;;;;;;;2.30;2.10;;;;;;;17.33;46.28;95267.66;5074522;28;20205;-75
2022/06/15 03:31:47;;;;;;;2.72;2.40;;;;;;;17.42;46.35;95260.91;5075552;28;20205;-75
2022/06/15 03:34:14;;;;;;;3.45;2.50;;;;;;;17.50;46.69;95263.38;5075977;28;20181;-75
2022/06/15 03:36:41;;;;;;;2.67;2.38;;;;;;;17.58;46.56;95275.34;5075052;28;20656;-74
2022/06/15 03:39:10;;;;;;;4.15;2.55;;;;;;;17.61;46.16;95271.75;5075442;28;20239;-75
2022/06/15 03:41:37;;;;;;;6.40;3.58;;;;;;;17.65;45.62;95269.78;5074656;28;20205;-75
2022/06/15 03:44:04;;;;;;;2.88;2.67;;;;;;;17.69;46.08;95275.38;5075318;28;20181;-74
2022/06/15 03:46:31;;;;;;;2.70;2.50;;;;;;;17.73;45.78;95271.41;5075046;28;20530;-74
2022/06/15 03:48:58;;;;;;;3.13;2.40;;;;;;;17.76;46.27;95276.22;5075122;28;20193;-74
2022/06/15 03:51:25;;;;;;;3.70;2.47;;;;;;;17.78;45.49;95276.59;5074020;28;20201;-74
2022/06/15 03:53:51;;;;;;;2.50;2.30;;;;;;;17.80;45.38;95273.44;5075523;28;20181;-75
2022/06/15 03:56:19;;;;;;;2.70;2.50;;;;;;;17.80;45.59;95285.41;5074401;28;20224;-73
2022/06/15 03:58:46;;;;;;;3.65;2.60;;;;;;;17.86;45.81;95285.00;5075326;28;20652;-73
2022/06/15 04:01:13;;;;;;;3.58;2.85;;;;;;;17.85;45.43;95281.41;5074269;28;20257;-72
2022/06/15 04:03:40;;;;;;;3.40;2.28;;;;;;;17.87;45.82;95276.25;5075344;28;20193;-74
2022/06/15 04:06:08;;;;;;;3.47;3.00;;;;;;;17.87;45.54;95283.81;5075025;28;20196;-72
2022/06/15 04:08:42;;;;;;;3.08;2.78;;;;;;;17.80;45.48;95284.59;5074505;28;20205;-70
2022/06/15 04:11:10;;;;;;;3.35;3.05;;;;;;;17.76;45.54;95281.81;5073871;28;20204;-70
2022/06/15 04:13:38;;;;;;;2.78;2.58;;;;;;;17.74;45.75;95286.94;5074592;28;20541;-70
2022/06/15 04:16:07;;;;;;;5.07;2.80;;;;;;;17.73;45.86;95273.38;5073825;28;20217;-70
2022/06/15 04:18:34;;;;;;;3.90;2.83;;;;;;;17.73;45.25;95278.97;5074113;28;20535;-70
2022/06/15 04:21:01;;;;;;;3.28;2.97;;;;;;;17.72;45.85;95278.16;5074009;28;20193;-70
2022/06/15 04:23:28;;;;;;;2.90;2.63;;;;;;;17.74;46.04;95283.34;5073864;28;20201;-70
2022/06/15 04:25:57;;;;;;;3.40;3.10;;;;;;;17.74;46.34;95286.94;5073693;28;20236;-70
2022/06/15 04:28:26;;;;;;;2.75;2.55;;;;;;;17.75;46.48;95284.94;5073597;28;20201;-70
2022/06/15 04:30:54;;;;;;;3.13;2.38;;;;;;;17.74;46.70;95289.72;5073545;28;20630;-70
2022/06/15 04:33:23;;;;;;;4.50;2.95;;;;;;;17.76;46.93;95283.78;5073738;28;20201;-71
2022/06/15 04:35:50;;;;;;;2.95;2.72;;;;;;;17.75;48.53;95284.94;5074184;28;20224;-71
2022/06/15 04:38:17;;;;;;;4.35;3.35;;;;;;;17.72;51.14;95292.13;5074626;28;20609;-70
2022/06/15 04:40:44;;;;;;;3.08;2.80;;;;;;;17.66;52.21;95295.69;5075066;28;20204;-71
2022/06/15 04:43:11;;;;;;;4.45;2.92;;;;;;;17.60;52.31;95289.66;5073669;28;20193;-70
2022/06/15 04:45:38;;;;;;;3.70;3.00;;;;;;;17.53;54.02;95295.22;5074722;28;20205;-70
2022/06/15 04:48:09;;;;;;;3.25;2.80;;;;;;;17.43;54.23;95290.38;5074792;28;20251;-70
2022/06/15 04:50:36;;;;;;;3.95;3.38;;;;;;;17.35;54.77;95289.56;5074442;28;20366;-70
2022/06/15 04:53:05;;;;;;;3.05;2.85;;;;;;;17.29;55.00;95293.94;5074488;28;20193;-70
2022/06/15 04:55:32;;;;;;;4.38;3.17;;;;;;;17.25;56.30;95290.34;5078314;28;20197;-71
2022/06/15 04:58:00;;;;;;;4.75;3.05;;;;;;;17.24;56.64;95295.09;5078245;28;20212;-70
2022/06/15 05:00:29;;;;;;;6.47;3.63;;;;;;;17.22;57.41;95289.13;5078302;28;20178;-71
2022/06/15 05:02:56;;;;;;;4.25;3.30;;;;;;;17.22;53.98;95294.69;5078194;28;20192;-71
2022/06/15 05:05:24;;;;;;;3.40;3.13;;;;;;;17.32;53.88;95293.94;5077716;28;20204;-71
2022/06/15 05:07:52;;;;;;;5.13;4.00;;;;;;;17.40;54.52;95289.22;5077145;28;20193;-70
2022/06/15 05:10:22;;;;;;;4.22;3.30;;;;;;;17.46;53.14;95293.19;5077442;28;20231;-70
2022/06/15 05:12:49;;;;;;;3.90;2.95;;;;;;;17.54;51.01;95297.63;5077111;28;20201;-70
2022/06/15 05:15:17;;;;;;;3.55;3.00;;;;;;;17.60;50.37;95298.03;5077011;28;20189;-70
2022/06/15 05:17:46;;;;;;;3.20;3.00;;;;;;;17.65;49.75;95308.03;5077250;28;20220;-70
2022/06/15 05:20:15;;;;;;;3.95;3.38;;;;;;;17.70;49.61;95304.84;5076807;28;20541;-70
2022/06/15 05:22:43;;;;;;;3.80;3.22;;;;;;;17.72;48.82;95314.44;5077007;28;20208;-70
2022/06/15 05:25:10;;;;;;;3.20;2.90;;;;;;;17.72;48.34;95305.25;5076314;28;20240;-70
2022/06/15 05:27:37;;;;;;;4.63;3.58;;;;;;;17.72;48.80;95322.81;5076885;28;20203;-70
2022/06/15 05:30:05;;;;;;;3.33;3.05;;;;;;;17.74;49.21;95314.81;5077092;28;20205;-70
2022/06/15 05:32:32;;;;;;;3.88;3.58;;;;;;;17.76;49.65;95317.28;5076541;28;20228;-70
2022/06/15 05:35:00;;;;;;;3.90;3.10;;;;;;;17.82;48.78;95321.25;5076675;28;20216;-70
2022/06/15 05:37:28;;;;;;;3.15;2.85;;;;;;;17.83;48.79;95322.88;5076426;28;20232;-70
2022/06/15 05:39:56;;;;;;;3.17;2.97;;;;;;;17.85;48.32;95328.84;5076538;28;20197;-70
2022/06/15 05:42:26;;;;;;;4.10;3.50;;;;;;;17.86;47.95;95326.84;5076633;28;20197;-70
2022/06/15 05:44:53;;;;;;;3.78;3.17;;;;;;;17.88;48.28;95325.28;5076504;28;20197;-70
2022/06/15 05:47:20;;;;;;;3.38;2.83;;;;;;;17.91;48.36;95332.84;5076254;28;20201;-70
2022/06/15 05:49:47;;;;;;;4.10;3.15;;;;;;;17.92;48.74;95326.06;5076386;28;20205;-71
2022/06/15 05:52:14;;;;;;;4.10;3.05;;;;;;;17.96;48.47;95323.28;5076517;28;20197;-70
2022/06/15 05:54:41;;;;;;;3.72;3.00;;;;;;;17.98;47.94;95321.72;5076275;28;20197;-70
2022/06/15 05:57:15;;;;;;;4.10;3.15;;;;;;;17.99;48.18;95328.09;5075854;28;20217;-70
2022/06/15 05:59:42;;;;;;;4.20;3.15;;;;;;;17.99;47.94;95328.88;5076436;28;20204;-71
2022/06/15 06:02:09;;;;;;;4.57;3.08;;;;;;;18.01;47.71;95329.31;5076248;28;20197;-71
2022/06/15 06:04:36;;;;;;;4.88;3.30;;;;;;;18.02;48.17;95333.69;5075783;28;20203;-71
2022/06/15 06:07:03;;;;;;;3.20;2.90;;;;;;;18.03;47.57;95337.28;5075077;28;20219;-70
2022/06/15 06:09:31;;;;;;;5.82;5.32;;;;;;;18.06;48.29;95338.47;5075644;28;20636;-70
2022/06/15 06:11:58;;;;;;;5.53;4.57;;;;;;;18.06;48.32;95333.69;5075776;28;20197;-70
2022/06/15 06:14:26;;;;;;;4.22;3.72;;;;;;;18.08;48.69;95336.06;5075866;28;20203;-70
2022/06/15 06:16:53;;;;;;;5.70;2.70;;;;;;;18.11;48.21;95350.03;5075714;28;20561;-70
2022/06/15 06:19:19;;;;;;;3.40;2.97;;;;;;;18.12;48.10;95339.66;5075442;28;20209;-70
2022/06/15 06:21:46;;;;;;;5.45;3.45;;;;;;;18.13;48.36;95347.66;5076021;28;20208;-70
2022/06/15 06:24:13;;;;;;;4.45;3.72;;;;;;;18.13;48.19;95350.47;5075507;28;20236;-70
2022/06/15 06:26:42;;;;;;;3.90;3.40;;;;;;;18.15;48.00;95353.63;5075866;28;20204;-70
2022/06/15 06:29:12;;;;;;;3.63;2.78;;;;;;;18.18;47.95;95349.25;5075200;28;20213;-70
2022/06/15 06:31:40;;;;;;;3.38;3.05;;;;;;;18.19;48.58;95353.66;5075433;28;20212;-71
2022/06/15 06:34:07;;;;;;;3.33;2.92;;;;;;;18.22;48.57;95353.66;5075770;28;20197;-71
2022/06/15 06:36:37;;;;;;;4.80;3.00;;;;;;;18.24;47.67;95353.28;5075142;28;20200;-71
2022/06/15 06:39:06;;;;;;;2.97;2.33;;;;;;;18.23;48.03;95346.91;5075275;28;20544;-71
2022/06/15 06:41:34;;;;;;;3.42;2.83;;;;;;;18.26;48.16;95350.88;5075499;28;20215;-71
2022/06/15 06:44:03;;;;;;;3.97;2.78;;;;;;;18.28;47.88;95346.50;5075307;28;20185;-71
2022/06/15 06:46:29;;;;;;;2.78;2.40;;;;;;;18.31;47.49;95341.31;5075274;28;20288;-71
2022/06/15 06:48:58;;;;;;;5.47;2.70;;;;;;;18.33;47.90;95336.13;5074786;28;20203;-71
2022/06/15 06:51:25;;;;;;;6.00;3.50;;;;;;;18.36;48.19;95340.94;5074992;28;20206;-70
2022/06/15 06:53:52;;;;;;;4.97;3.10;;;;;;;18.37;48.10;95342.50;5074723;28;20192;-70
2022/06/15 06:56:19;;;;;;;3.72;3.22;;;;;;;18.35;48.55;95337.34;5075827;28;20532;-70
2022/06/15 06:58:46;;;;;;;2.63;2.42;;;;;;;18.37;49.34;95343.31;5074854;28;20549;-70
2022/06/15 07:01:13;;;;;;;3.75;2.78;;;;;;;18.39;49.44;95349.31;5075516;28;20181;-70
2022/06/15 07:03:40;;;;;;;3.78;2.65;;;;;;;18.37;50.05;95340.53;5075581;28;20200;-71
2022/06/15 07:06:09;;;;;;;4.28;2.80;;;;;;;18.37;50.24;95343.31;5074661;28;20197;-71
2022/06/15 07:08:38;;;;;;;4.25;3.42;;;;;;;18.42;50.52;95353.31;5075008;28;20193;-70
2022/06/15 07:11:08;;;;;;;3.28;3.08;;;;;;;18.41;48.80;95340.53;5074288;28;20655;-70
2022/06/15 07:13:35;;;;;;;3.55;3.03;;;;;;;18.42;49.29;95342.94;5075001;28;20302;-70
2022/06/15 07:16:04;;;;;;;3.63;3.17;;;;;;;18.44;49.79;95342.53;5074824;28;20197;-70
2022/06/15 07:18:31;;;;;;;3.72;3.13;;;;;;;18.45;50.10;95333.78;5073526;28;20232;-70
2022/06/15 07:21:02;;;;;;;4.05;2.88;;;;;;;18.50;50.21;95340.94;5074503;28;20193;-70
2022/06/15 07:23:30;;;;;;;2.95;2.63;;;;;;;18.55;50.30;95331.38;5074743;28;20547;-70
2022/06/15 07:25:58;;;;;;;3.78;2.55;;;;;;;18.56;50.26;95341.38;5074709;28;20193;-70
2022/06/15 07:28:24;;;;;;;4.05;2.90;;;;;;;18.58;50.08;95339.75;5074676;28;20201;-70
2022/06/15 07:30:51;;;;;;;6.60;3.20;;;;;;;18.61;50.01;95340.94;5074173;28;20201;-70
2022/06/15 07:33:19;;;;;;;2.50;2.30;;;;;;;18.61;49.44;95341.75;5074450;28;20189;-70
2022/06/15 07:35:46;;;;;;;5.38;2.70;;;;;;;18.66;49.77;95341.34;5074236;28;20264;-70
2022/06/15 07:38:13;;;;;;;3.45;3.15;;;;;;;18.69;49.80;95342.53;5073999;28;20212;-71
2022/06/15 07:40:41;;;;;;;4.35;3.10;;;;;;;18.73;49.62;95349.75;5074391;28;20205;-71
2022/06/15 07:43:08;;;;;;;3.47;2.83;;;;;;;18.74;49.31;95345.00;5075088;28;20181;-70
2022/06/15 07:45:35;;;;;;;3.88;3.30;;;;;;;18.76;49.86;95345.38;5074460;28;20200;-70
2022/06/15 07:50:45;;;;;;;6.45;3.08;;;;;;;18.80;49.14;95346.16;5075084;28;20181;-70
2022/06/15 07:53:14;;;;;;;3.05;2.75;;;;;;;18.83;48.60;95350.97;5075256;28;20185;-70
2022/06/15 07:55:45;;;;;;;3.67;2.65;;;;;;;18.88;49.69;95341.38;5074739;28;20659;-70
2022/06/15 07:58:14;;;;;;;5.35;2.88;;;;;;;18.95;48.90;95346.97;5074447;28;20231;-70
2022/06/15 08:00:42;;;;;;;3.30;2.80;;;;;;;18.99;49.66;95339.38;5074512;28;20536;-70
2022/06/15 08:03:10;;;;;;;2.78;2.58;;;;;;;19.05;49.65;95336.97;5074756;28;20589;-70
2022/06/15 08:05:41;;;;;;;3.80;2.90;;;;;;;19.05;48.33;95340.56;5074690;28;20613;-70
2022/06/15 08:08:10;;;;;;;4.97;3.50;;;;;;;19.06;48.78;95355.34;5074340;28;20193;-70
2022/06/15 08:10:37;;;;;;;3.10;2.90;;;;;;;19.06;47.43;95346.94;5073814;28;20220;-70
2022/06/15 08:13:05;;;;;;;3.10;2.80;;;;;;;19.07;47.79;95342.97;5074134;28;20231;-70
2022/06/15 08:15:32;;;;;;;6.30;4.07;;;;;;;19.12;48.71;95348.94;5073768;28;20201;-70
2022/06/15 08:18:03;;;;;;;3.22;2.90;;;;;;;19.18;48.98;95344.56;5073772;28;20224;-70
2022/06/15 08:20:35;;;;;;;5.13;2.70;;;;;;;19.27;49.45;95349.72;5073846;28;20212;-70
2022/06/15 08:23:04;;;;;;;4.13;2.78;;;;;;;19.32;47.58;95345.69;5073864;28;20234;-70
2022/06/15 08:25:35;;;;;;;3.75;2.47;;;;;;;19.31;47.36;95344.13;5073699;28;20241;-70
2022/06/15 08:28:03;;;;;;;3.53;2.83;;;;;;;19.36;48.21;95335.34;5074869;28;20181;-70
2022/06/15 08:30:32;;;;;;;3.40;2.85;;;;;;;19.45;48.75;95342.06;5077695;28;20197;-70
2022/06/15 08:32:58;;;;;;;2.95;2.60;;;;;;;19.53;47.88;95344.84;5078526;28;20193;-70
2022/06/15 08:35:25;;;;;;;3.58;2.67;;;;;;;19.55;47.73;95336.88;5077851;28;20238;-70
2022/06/15 08:37:52;;;;;;;3.20;2.58;;;;;;;19.66;48.32;95338.44;5077818;28;20217;-70
2022/06/15 08:40:19;;;;;;;3.92;3.58;;;;;;;19.74;47.07;95339.22;5077281;28;20212;-70
2022/06/15 08:42:52;;;;;;;6.35;4.00;;;;;;;19.78;47.14;95339.22;5077433;28;20598;-70
2022/06/15 08:45:25;;;;;;;3.38;3.08;;;;;;;19.84;46.71;95340.38;5077360;28;20661;-71
2022/06/15 08:48:20;;;;;;;3.15;2.53;;;;;;;19.92;48.38;95345.53;5077681;28;20632;-70
2022/06/15 08:50:52;;;;;;;3.47;2.70;;;;;;;19.98;45.26;95343.13;5077169;28;20194;-70
2022/06/15 08:53:24;;;;;;;3.45;2.40;;;;;;;20.02;43.68;95340.31;5077403;28;20208;-70
2022/06/15 08:55:57;;;;;;;4.57;2.30;;;;;;;20.06;43.85;95338.28;5076889;28;20204;-71
2022/06/15 08:58:29;;;;;;;2.38;2.05;;;;;;;20.20;45.87;95341.00;5076845;28;20216;-71
2022/06/15 09:00:59;;;;;;;3.33;2.60;;;;;;;20.32;46.26;95337.72;5077148;28;20211;-71
2022/06/15 09:03:35;;;;;;;2.40;2.20;;;;;;;20.39;44.73;95348.09;5077356;28;20201;-70
2022/06/15 09:06:11;;;;;;;3.63;2.47;;;;;;;20.49;44.95;95344.44;5077475;28;20212;-70
2022/06/15 09:08:56;;;;;;;3.72;2.40;;;;;;;20.58;45.90;95341.19;5077683;28;20184;-70
2022/06/15 09:11:34;;;;;;;3.08;2.78;;;;;;;20.68;43.07;95343.13;5076932;28;20212;-70
2022/06/15 09:14:10;;;;;;;3.35;2.50;;;;;;;20.73;44.05;95330.66;5076930;28;20200;-70
2022/06/15 09:16:44;;;;;;;4.28;3.00;;;;;;;20.80;43.40;95333.41;5077158;28;20197;-70
2022/06/15 09:19:15;;;;;;;5.50;2.90;;;;;;;20.90;44.20;95340.94;5076728;28;20295;-70
2022/06/15 09:21:46;;;;;;;2.70;2.50;;;;;;;20.98;43.58;95330.47;5077177;28;20628;-70
2022/06/15 09:24:16;;;;;;;3.78;3.30;;;;;;;21.04;43.21;95338.00;5076191;28;20567;-70
2022/06/15 09:26:49;;;;;;;3.80;2.63;;;;;;;21.12;42.66;95333.94;5076564;28;20201;-70
2022/06/15 09:29:19;;;;;;;2.95;2.65;;;;;;;21.21;43.94;95338.28;5076570;28;20292;-70
2022/06/15 09:31:49;;;;;;;3.15;2.95;;;;;;;21.30;43.34;95338.56;5076667;28;20208;-70
2022/06/15 09:34:21;;;;;;;2.90;2.40;;;;;;;21.36;43.58;95332.13;5076799;28;20197;-70
2022/06/15 09:36:51;;;;;;;2.53;2.33;;;;;;;21.47;43.41;95329.22;5076160;28;20196;-70
2022/06/15 09:39:19;;;;;;;2.72;2.53;;;;;;;21.53;41.96;95332.34;5076280;28;20262;-70
2022/06/15 09:41:50;;;;;;;2.75;2.50;;;;;;;21.57;41.46;95333.13;5076078;28;20200;-70
2022/06/15 09:44:25;;;;;;;2.88;2.30;;;;;;;21.60;43.11;95326.66;5077287;28;20208;-70
2022/06/15 09:46:56;;;;;;;5.22;4.38;;;;;;;21.72;43.15;95330.94;5076289;28;20200;-70
2022/06/15 09:49:35;;;;;;;4.80;3.38;;;;;;;21.81;42.33;95334.03;5076186;28;20189;-70
2022/06/15 09:52:07;;;;;;;3.83;2.70;;;;;;;21.88;43.81;95331.13;5076885;28;20203;-70
2022/06/15 09:54:42;;;;;;;3.13;2.60;;;;;;;21.98;42.27;95324.59;5076328;28;20205;-71
2022/06/15 09:57:10;;;;;;;3.40;2.83;;;;;;;22.01;43.86;95323.75;5077107;28;20197;-71
2022/06/15 09:59:37;;;;;;;3.40;2.67;;;;;;;22.09;42.89;95328.06;5076561;28;20258;-71
2022/06/15 10:02:07;;;;;;;2.60;2.40;;;;;;;22.14;43.39;95318.38;5076629;28;20193;-71
2022/06/15 10:04:36;;;;;;;2.85;2.60;;;;;;;22.17;43.86;95311.94;5077575;28;20515;-70
2022/06/15 10:07:07;;;;;;;3.53;2.60;;;;;;;22.33;44.70;95319.72;5077014;28;20243;-70
2022/06/15 10:09:39;;;;;;;2.50;2.30;;;;;;;22.40;43.08;95319.63;5077238;28;20308;-70
2022/06/15 10:15:14;;;;;;;2.83;2.63;;;;;;;22.58;44.57;95314.53;5076721;28;20205;-71
2022/06/15 10:17:45;;;;;;;3.30;3.00;;;;;;;22.65;44.14;95322.06;5076151;28;20193;-70
2022/06/15 10:20:22;;;;;;;3.20;2.90;;;;;;;22.65;41.33;95321.25;5076628;28;20220;-70
2022/06/15 10:22:53;;;;;;;2.55;2.35;;;;;;;22.65;42.32;95319.25;5076402;28;20216;-70
2022/06/15 10:25:20;;;;;;;3.05;2.75;;;;;;;22.66;42.20;95322.84;5076682;28;20232;-70
2022/06/15 10:27:47;;;;;;;3.30;2.67;;;;;;;22.74;45.76;95313.09;5077026;28;20185;-70
2022/06/15 10:30:21;;;;;;;3.35;2.97;;;;;;;22.80;42.26;95320.63;5076527;28;20178;-70
2022/06/15 10:33:02;;;;;;;2.72;2.47;;;;;;;22.85;43.40;95321.38;5075482;28;20708;-70
2022/06/15 10:35:32;;;;;;;3.35;2.42;;;;;;;22.86;42.05;95308.88;5076644;28;20185;-70
2022/06/15 10:38:01;;;;;;;2.80;2.60;;;;;;;22.86;42.46;95318.09;5075282;28;20369;-70
2022/06/15 10:40:30;;;;;;;2.80;2.60;;;;;;;22.86;42.72;95312.47;5075733;28;20572;-70
2022/06/15 10:43:01;;;;;;;4.95;3.45;;;;;;;22.91;43.12;95309.19;5075239;28;20192;-70
2022/06/15 10:45:33;;;;;;;2.75;2.55;;;;;;;22.97;40.71;95312.34;5075153;28;20201;-70
2022/06/15 10:48:02;;;;;;;3.45;3.15;;;;;;;22.96;43.39;95308.75;5076275;28;20605;-70
2022/06/15 10:50:33;;;;;;;2.63;2.42;;;;;;;23.04;42.25;95301.75;5075618;28;20200;-70
2022/06/15 10:53:02;;;;;;;5.05;2.85;;;;;;;23.12;43.15;95293.97;5075308;28;20209;-71
2022/06/15 11:04:12;;;;;;;3.10;2.85;;;;;;;23.39;43.91;95295.94;5075252;28;20189;-70
2022/06/15 11:06:44;;;;;;;3.10;2.75;;;;;;;23.43;41.68;95289.00;5074897;28;20216;-70
2022/06/15 11:09:28;;;;;;;3.03;2.72;;;;;;;23.45;42.42;95291.38;5075520;28;20504;-70
2022/06/15 11:11:58;;;;;;;2.78;2.40;;;;;;;23.47;41.92;95292.53;5076010;28;20189;-70
2022/06/15 11:14:29;;;;;;;3.33;2.78;;;;;;;23.52;41.71;95289.22;5075312;28;20181;-70
2022/06/15 11:19:59;;;;;;;2.72;2.50;;;;;;;23.62;42.23;95295.06;5075936;28;20200;-70
2022/06/15 11:22:28;;;;;;;2.80;2.60;;;;;;;23.59;41.02;95282.66;5076079;28;20185;-70
2022/06/15 11:24:59;;;;;;;2.95;2.75;;;;;;;23.58;41.02;95291.53;5075661;28;20237;-70
2022/06/15 11:27:29;;;;;;;3.13;2.88;;;;;;;23.62;42.64;95281.78;5075063;28;20229;-70
2022/06/15 11:30:00;;;;;;;3.72;2.72;;;;;;;23.63;41.38;95277.72;5075998;28;20242;-70
2022/06/15 11:32:41;;;;;;;3.20;3.00;;;;;;;23.35;41.27;95278.28;5074767;28;20204;-70
2022/06/15 11:35:23;;;;;;;3.40;3.10;;;;;;;23.21;43.57;95273.75;5075493;28;20243;-70
2022/06/15 11:37:57;;;;;;;3.05;2.72;;;;;;;23.35;42.95;95275.47;5075094;28;20637;-70
2022/06/15 11:40:30;;;;;;;3.33;3.05;;;;;;;23.52;43.75;95277.16;5074374;28;20231;-70
2022/06/15 11:42:57;;;;;;;3.53;2.90;;;;;;;23.57;41.62;95281.47;5075217;28;20622;-70
2022/06/15 11:45:34;;;;;;;2.80;2.60;;;;;;;23.61;42.67;95268.16;5075204;28;20517;-70
2022/06/15 11:48:11;;;;;;;3.03;2.83;;;;;;;23.71;42.79;95267.97;5074103;28;20200;-70
2022/06/15 11:50:43;;;;;;;3.58;2.63;;;;;;;23.77;42.31;95269.03;5075149;28;20196;-70
2022/06/15 11:53:22;;;;;;;2.97;2.67;;;;;;;23.75;42.13;95263.06;5074092;28;20185;-71
2022/06/15 11:55:54;;;;;;;3.22;2.97;;;;;;;23.69;42.63;95261.97;5074488;28;20196;-70
2022/06/15 11:58:37;;;;;;;3.22;2.92;;;;;;;23.76;43.46;95264.63;5074586;28;20227;-70
2022/06/15 12:01:12;;;;;;;4.72;3.38;;;;;;;23.96;44.60;95264.59;5074181;28;20620;-70
2022/06/15 12:03:57;;;;;;;3.97;3.60;;;;;;;24.08;43.89;95251.09;5074876;28;20309;-70